createdAt,value
2018-03-31T00:00:20.468Z,990.09
2018-03-31T00:01:20.448Z,990.03
2018-03-31T00:02:20.431Z,990.06
2018-03-31T00:03:20.415Z,990.06
2018-03-31T00:04:20.394Z,990.08
2018-03-31T00:05:20.376Z,990.08
2018-03-31T00:06:20.361Z,990.13
2018-03-31T00:07:20.341Z,990.14
2018-03-31T00:08:20.523Z,990.1
2018-03-31T00:09:20.303Z,990.07
2018-03-31T00:10:20.302Z,990
2018-03-31T00:11:20.268Z,990.04
2018-03-31T00:12:20.250Z,990.05
2018-03-31T00:13:20.231Z,990.11
2018-03-31T00:14:20.217Z,990.11
2018-03-31T00:15:20.195Z,990.16
2018-03-31T00:16:20.175Z,990.09
2018-03-31T00:17:20.159Z,990.12
2018-03-31T00:18:20.146Z,990.2
2018-03-31T00:19:20.124Z,990.21
2018-03-31T00:20:20.104Z,990.2
2018-03-31T00:21:20.087Z,990.2
2018-03-31T00:22:20.071Z,990.22
2018-03-31T00:23:20.050Z,990.23
2018-03-31T00:24:20.032Z,990.22
2018-03-31T00:25:20.013Z,990.21
2018-03-31T00:26:19.995Z,990.23
2018-03-31T00:27:19.979Z,990.23
2018-03-31T00:28:19.957Z,990.23
2018-03-31T00:29:19.941Z,990.27
2018-03-31T00:30:19.922Z,990.26
2018-03-31T00:31:19.902Z,990.26
2018-03-31T00:32:19.884Z,990.26
2018-03-31T00:33:19.867Z,990.27
2018-03-31T00:34:19.848Z,990.24
2018-03-31T00:35:19.833Z,990.28
2018-03-31T00:36:19.813Z,990.27
2018-03-31T00:37:19.794Z,990.32
2018-03-31T00:38:19.806Z,990.3
2018-03-31T00:39:19.757Z,990.28
2018-03-31T00:40:19.739Z,990.29
2018-03-31T00:41:19.720Z,990.3
2018-03-31T00:42:19.703Z,990.3
2018-03-31T00:43:19.684Z,990.31
2018-03-31T00:44:19.667Z,990.29
2018-03-31T00:45:19.646Z,990.25
2018-03-31T00:46:19.631Z,990.3
2018-03-31T00:47:19.614Z,990.27
2018-03-31T00:48:19.596Z,990.33
2018-03-31T00:49:19.580Z,990.25
2018-03-31T00:50:19.556Z,990.24
2018-03-31T00:51:19.539Z,990.19
2018-03-31T00:52:19.521Z,990.22
2018-03-31T00:53:19.502Z,990.18
2018-03-31T00:54:19.488Z,990.22
2018-03-31T00:55:19.465Z,990.25
2018-03-31T00:56:19.447Z,990.23
2018-03-31T00:57:19.427Z,990.24
2018-03-31T00:58:19.411Z,990.22
2018-03-31T00:59:19.391Z,990.21
2018-03-31T01:00:19.376Z,990.19
2018-03-31T01:01:19.357Z,990.23
2018-03-31T01:02:19.338Z,990.15
2018-03-31T01:03:19.321Z,990.17
2018-03-31T01:04:19.301Z,990.12
2018-03-31T01:05:19.281Z,990.14
2018-03-31T01:06:19.261Z,990.13
2018-03-31T01:07:19.247Z,990.17
2018-03-31T01:08:19.228Z,990.16
2018-03-31T01:09:19.207Z,990.13
2018-03-31T01:10:19.188Z,990.18
2018-03-31T01:11:19.172Z,990.1
2018-03-31T01:12:19.153Z,990.15
2018-03-31T01:13:19.133Z,990.15
2018-03-31T01:14:19.116Z,990.14
2018-03-31T01:15:19.097Z,990.2
2018-03-31T01:16:19.083Z,990.16
2018-03-31T01:17:19.059Z,990.19
2018-03-31T01:18:19.040Z,990.17
2018-03-31T01:19:19.023Z,990.18
2018-03-31T01:20:19.004Z,990.18
2018-03-31T01:21:18.983Z,990.16
2018-03-31T01:22:18.965Z,990.14
2018-03-31T01:23:18.990Z,990.12
2018-03-31T01:24:18.928Z,990.06
2018-03-31T01:25:18.908Z,990.05
2018-03-31T01:26:18.890Z,990.04
2018-03-31T01:27:18.875Z,990.02
2018-03-31T01:28:18.855Z,990.06
2018-03-31T01:29:18.839Z,990.02
2018-03-31T01:30:18.820Z,990.06
2018-03-31T01:31:18.872Z,990.07
2018-03-31T01:32:18.781Z,990.05
2018-03-31T01:33:18.761Z,990.04
2018-03-31T01:34:18.742Z,990.08
2018-03-31T01:35:18.724Z,990.06
2018-03-31T01:36:18.708Z,990.07
2018-03-31T01:37:18.686Z,990.1
2018-03-31T01:38:18.674Z,990.14
2018-03-31T01:39:18.650Z,990.15
2018-03-31T01:40:18.630Z,990.17
2018-03-31T01:41:18.613Z,990.16
2018-03-31T01:42:18.597Z,990.23
2018-03-31T01:43:18.575Z,990.18
2018-03-31T01:44:18.559Z,990.16
2018-03-31T01:45:18.538Z,990.19
2018-03-31T01:46:18.518Z,990.18
2018-03-31T01:47:18.501Z,990.18
2018-03-31T01:48:18.483Z,990.19
2018-03-31T01:49:18.462Z,990.15
2018-03-31T01:50:18.445Z,990.15
2018-03-31T01:51:18.426Z,990.14
2018-03-31T01:52:18.406Z,990.14
2018-03-31T01:53:18.389Z,990.09
2018-03-31T01:54:18.370Z,990.1
2018-03-31T01:55:18.351Z,990.12
2018-03-31T01:56:18.334Z,990.08
2018-03-31T01:57:18.315Z,990.11
2018-03-31T01:58:18.298Z,990.07
2018-03-31T01:59:18.282Z,990.08
2018-03-31T02:00:18.264Z,990.06
2018-03-31T02:01:18.237Z,990.04
2018-03-31T02:02:18.220Z,990.05
2018-03-31T02:03:18.201Z,990.05
2018-03-31T02:04:18.183Z,990.04
2018-03-31T02:05:18.163Z,990.04
2018-03-31T02:06:18.145Z,990.05
2018-03-31T02:07:18.126Z,990.04
2018-03-31T02:08:18.312Z,990
2018-03-31T02:09:18.097Z,990.01
2018-03-31T02:10:18.069Z,990.01
2018-03-31T02:11:18.050Z,990.03
2018-03-31T02:12:18.032Z,990.05
2018-03-31T02:13:18.018Z,990.08
2018-03-31T02:14:17.993Z,990.07
2018-03-31T02:15:17.975Z,990.07
2018-03-31T02:16:17.955Z,990.01
2018-03-31T02:17:17.985Z,990.08
2018-03-31T02:18:17.920Z,990.04
2018-03-31T02:19:17.906Z,990.02
2018-03-31T02:20:17.884Z,990.03
2018-03-31T02:21:17.861Z,990.04
2018-03-31T02:22:17.842Z,990
2018-03-31T02:23:17.826Z,990.04
2018-03-31T02:24:17.804Z,990.02
2018-03-31T02:25:17.788Z,990.02
2018-03-31T02:26:17.770Z,990.02
2018-03-31T02:27:17.748Z,990.01
2018-03-31T02:28:17.731Z,990.01
2018-03-31T02:29:17.709Z,989.96
2018-03-31T02:30:17.702Z,989.94
2018-03-31T02:31:17.675Z,989.94
2018-03-31T02:32:17.653Z,989.94
2018-03-31T02:33:17.635Z,989.93
2018-03-31T02:34:17.623Z,989.95
2018-03-31T02:35:17.597Z,989.95
2018-03-31T02:36:17.578Z,989.95
2018-03-31T02:37:17.559Z,989.94
2018-03-31T02:38:17.542Z,989.93
2018-03-31T02:39:17.522Z,989.95
2018-03-31T02:40:17.501Z,989.91
2018-03-31T02:41:17.485Z,989.93
2018-03-31T02:42:17.464Z,989.94
2018-03-31T02:43:17.443Z,989.9
2018-03-31T02:44:17.424Z,989.89
2018-03-31T02:45:17.407Z,989.91
2018-03-31T02:46:17.386Z,989.91
2018-03-31T02:47:17.367Z,989.93
2018-03-31T02:48:17.349Z,989.88
2018-03-31T02:49:17.328Z,989.93
2018-03-31T02:50:17.309Z,989.88
2018-03-31T02:51:17.289Z,989.93
2018-03-31T02:52:17.270Z,989.94
2018-03-31T02:53:17.251Z,989.93
2018-03-31T02:54:17.242Z,989.88
2018-03-31T02:55:17.212Z,989.94
2018-03-31T02:56:17.195Z,989.9
2018-03-31T02:57:17.173Z,989.92
2018-03-31T02:58:17.154Z,989.93
2018-03-31T02:59:17.142Z,989.89
2018-03-31T03:00:17.117Z,989.91
2018-03-31T03:01:17.098Z,989.91
2018-03-31T03:02:17.078Z,989.91
2018-03-31T03:03:17.059Z,989.86
2018-03-31T03:04:17.037Z,989.88
2018-03-31T03:05:17.017Z,989.89
2018-03-31T03:06:17.005Z,989.93
2018-03-31T03:07:16.981Z,989.91
2018-03-31T03:08:16.965Z,989.95
2018-03-31T03:09:16.940Z,989.95
2018-03-31T03:10:16.921Z,989.96
2018-03-31T03:11:16.902Z,989.96
2018-03-31T03:12:16.883Z,989.97
2018-03-31T03:13:16.864Z,989.94
2018-03-31T03:14:16.843Z,989.99
2018-03-31T03:15:16.824Z,989.98
2018-03-31T03:16:16.806Z,989.98
2018-03-31T03:17:16.790Z,989.99
2018-03-31T03:18:16.771Z,990.02
2018-03-31T03:19:16.751Z,990
2018-03-31T03:20:16.730Z,990.01
2018-03-31T03:21:16.718Z,989.95
2018-03-31T03:22:16.689Z,989.94
2018-03-31T03:23:16.672Z,989.95
2018-03-31T03:24:16.653Z,989.88
2018-03-31T03:25:16.634Z,989.91
2018-03-31T03:26:16.618Z,989.92
2018-03-31T03:27:16.594Z,989.96
2018-03-31T03:28:16.573Z,989.99
2018-03-31T03:29:16.557Z,989.98
2018-03-31T03:30:16.545Z,989.99
2018-03-31T03:31:16.518Z,990.01
2018-03-31T03:32:16.499Z,990.02
2018-03-31T03:33:16.476Z,990.1
2018-03-31T03:34:16.457Z,990.08
2018-03-31T03:35:16.437Z,990.14
2018-03-31T03:36:16.420Z,990.15
2018-03-31T03:37:16.404Z,990.16
2018-03-31T03:38:16.380Z,990.17
2018-03-31T03:39:16.361Z,990.22
2018-03-31T03:40:16.340Z,990.21
2018-03-31T03:41:16.322Z,990.22
2018-03-31T03:42:16.303Z,990.29
2018-03-31T03:43:16.284Z,990.32
2018-03-31T03:44:16.267Z,990.3
2018-03-31T03:45:16.244Z,990.37
2018-03-31T03:46:16.224Z,990.32
2018-03-31T03:47:16.206Z,990.34
2018-03-31T03:48:16.185Z,990.34
2018-03-31T03:49:16.165Z,990.34
2018-03-31T03:50:16.147Z,990.38
2018-03-31T03:51:16.127Z,990.4
2018-03-31T03:52:16.107Z,990.38
2018-03-31T03:53:16.094Z,990.41
2018-03-31T03:54:16.072Z,990.38
2018-03-31T03:55:16.048Z,990.41
2018-03-31T03:56:16.030Z,990.37
2018-03-31T03:57:16.013Z,990.4
2018-03-31T03:58:15.990Z,990.45
2018-03-31T03:59:15.970Z,990.42
2018-03-31T04:00:15.956Z,990.46
2018-03-31T04:01:15.938Z,990.49
2018-03-31T04:02:15.913Z,990.5
2018-03-31T04:03:15.891Z,990.54
2018-03-31T04:04:15.872Z,990.55
2018-03-31T04:05:15.856Z,990.59
2018-03-31T04:06:15.833Z,990.61
2018-03-31T04:07:15.815Z,990.64
2018-03-31T04:08:15.997Z,990.62
2018-03-31T04:09:15.776Z,990.64
2018-03-31T04:10:15.755Z,990.65
2018-03-31T04:11:15.736Z,990.65
2018-03-31T04:12:15.717Z,990.65
2018-03-31T04:13:15.696Z,990.63
2018-03-31T04:14:15.675Z,990.64
2018-03-31T04:15:15.657Z,990.66
2018-03-31T04:16:15.658Z,990.64
2018-03-31T04:17:15.671Z,990.6
2018-03-31T04:18:15.598Z,990.62
2018-03-31T04:19:15.579Z,990.62
2018-03-31T04:20:15.558Z,990.64
2018-03-31T04:21:15.580Z,990.66
2018-03-31T04:22:15.749Z,990.61
2018-03-31T04:23:15.506Z,990.63
2018-03-31T04:24:15.478Z,990.64
2018-03-31T04:25:15.459Z,990.63
2018-03-31T04:26:15.441Z,990.64
2018-03-31T04:27:15.422Z,990.65
2018-03-31T04:28:15.398Z,990.64
2018-03-31T04:29:15.378Z,990.62
2018-03-31T04:30:15.358Z,990.63
2018-03-31T04:31:15.339Z,990.64
2018-03-31T04:32:15.320Z,990.65
2018-03-31T04:33:15.328Z,990.67
2018-03-31T04:34:15.280Z,990.66
2018-03-31T04:35:15.284Z,990.64
2018-03-31T04:36:15.239Z,990.71
2018-03-31T04:37:15.219Z,990.69
2018-03-31T04:38:15.199Z,990.69
2018-03-31T04:39:15.179Z,990.68
2018-03-31T04:40:15.159Z,990.7
2018-03-31T04:41:15.373Z,990.74
2018-03-31T04:42:15.120Z,990.71
2018-03-31T04:43:15.123Z,990.68
2018-03-31T04:44:15.081Z,990.65
2018-03-31T04:45:15.060Z,990.63
2018-03-31T04:46:15.041Z,990.65
2018-03-31T04:47:15.022Z,990.62
2018-03-31T04:48:14.998Z,990.62
2018-03-31T04:49:15.055Z,990.62
2018-03-31T04:50:14.957Z,990.61
2018-03-31T04:51:14.938Z,990.58
2018-03-31T04:52:14.925Z,990.54
2018-03-31T04:53:14.897Z,990.56
2018-03-31T04:54:14.877Z,990.52
2018-03-31T04:55:14.924Z,990.5
2018-03-31T04:56:14.919Z,990.48
2018-03-31T04:57:14.819Z,990.48
2018-03-31T04:58:14.829Z,990.49
2018-03-31T04:59:14.816Z,990.51
2018-03-31T05:00:14.764Z,990.49
2018-03-31T05:01:14.739Z,990.49
2018-03-31T05:02:14.716Z,990.5
2018-03-31T05:03:14.702Z,990.5
2018-03-31T05:04:14.711Z,990.51
2018-03-31T05:05:14.685Z,990.52
2018-03-31T05:06:14.635Z,990.52
2018-03-31T05:07:14.618Z,990.49
2018-03-31T05:08:14.595Z,990.48
2018-03-31T05:09:14.589Z,990.54
2018-03-31T05:10:14.556Z,990.5
2018-03-31T05:11:14.539Z,990.53
2018-03-31T05:12:14.513Z,990.55
2018-03-31T05:13:14.493Z,990.54
2018-03-31T05:14:14.479Z,990.55
2018-03-31T05:15:14.457Z,990.55
2018-03-31T05:16:14.432Z,990.54
2018-03-31T05:17:14.413Z,990.57
2018-03-31T05:18:14.391Z,990.59
2018-03-31T05:19:14.372Z,990.54
2018-03-31T05:20:14.394Z,990.57
2018-03-31T05:21:14.349Z,990.55
2018-03-31T05:22:14.342Z,990.5
2018-03-31T05:23:14.294Z,990.52
2018-03-31T05:24:14.272Z,990.55
2018-03-31T05:25:14.302Z,990.58
2018-03-31T05:26:14.230Z,990.58
2018-03-31T05:27:14.209Z,990.57
2018-03-31T05:28:14.190Z,990.58
2018-03-31T05:29:14.171Z,990.63
2018-03-31T05:30:14.187Z,990.59
2018-03-31T05:31:14.186Z,990.59
2018-03-31T05:32:14.109Z,990.62
2018-03-31T05:33:14.086Z,990.63
2018-03-31T05:34:14.065Z,990.67
2018-03-31T05:35:14.048Z,990.66
2018-03-31T05:36:14.028Z,990.65
2018-03-31T05:37:14.007Z,990.63
2018-03-31T05:38:13.986Z,990.64
2018-03-31T05:39:13.968Z,990.67
2018-03-31T05:40:13.944Z,990.65
2018-03-31T05:41:13.928Z,990.67
2018-03-31T05:42:13.922Z,990.68
2018-03-31T05:43:13.890Z,990.72
2018-03-31T05:44:13.860Z,990.7
2018-03-31T05:45:13.845Z,990.71
2018-03-31T05:46:13.821Z,990.71
2018-03-31T05:47:13.801Z,990.68
2018-03-31T05:48:13.780Z,990.71
2018-03-31T05:49:13.830Z,990.67
2018-03-31T05:50:13.745Z,990.68
2018-03-31T05:51:13.718Z,990.67
2018-03-31T05:52:13.706Z,990.65
2018-03-31T05:53:13.682Z,990.66
2018-03-31T05:54:13.658Z,990.71
2018-03-31T05:55:13.643Z,990.73
2018-03-31T05:56:13.618Z,990.73
2018-03-31T05:57:13.606Z,990.75
2018-03-31T05:58:13.577Z,990.73
2018-03-31T05:59:13.559Z,990.75
2018-03-31T06:00:13.536Z,990.75
2018-03-31T06:01:13.520Z,990.73
2018-03-31T06:02:13.499Z,990.76
2018-03-31T06:03:13.481Z,990.77
2018-03-31T06:04:13.473Z,990.82
2018-03-31T06:05:13.434Z,990.81
2018-03-31T06:06:13.419Z,990.85
2018-03-31T06:07:13.395Z,990.83
2018-03-31T06:08:13.373Z,990.85
2018-03-31T06:09:13.355Z,990.84
2018-03-31T06:10:13.395Z,990.86
2018-03-31T06:11:13.313Z,990.86
2018-03-31T06:12:13.294Z,990.89
2018-03-31T06:13:13.274Z,990.89
2018-03-31T06:14:13.272Z,990.91
2018-03-31T06:15:13.327Z,990.9
2018-03-31T06:16:13.315Z,990.89
2018-03-31T06:17:13.193Z,990.93
2018-03-31T06:18:13.239Z,990.9
2018-03-31T06:19:13.154Z,990.96
2018-03-31T06:20:13.142Z,990.91
2018-03-31T06:21:13.112Z,990.93
2018-03-31T06:22:13.150Z,990.94
2018-03-31T06:23:13.079Z,990.94
2018-03-31T06:24:13.054Z,990.93
2018-03-31T06:25:13.235Z,990.92
2018-03-31T06:26:13.017Z,990.91
2018-03-31T06:27:13.023Z,990.9
2018-03-31T06:28:13.051Z,990.86
2018-03-31T06:29:12.989Z,990.85
2018-03-31T06:30:12.939Z,990.85
2018-03-31T06:31:12.949Z,990.85
2018-03-31T06:32:12.901Z,990.83
2018-03-31T06:33:12.879Z,990.85
2018-03-31T06:34:12.859Z,990.85
2018-03-31T06:35:12.839Z,990.87
2018-03-31T06:36:12.820Z,990.86
2018-03-31T06:37:12.802Z,990.86
2018-03-31T06:38:12.804Z,990.85
2018-03-31T06:39:12.761Z,990.85
2018-03-31T06:40:12.741Z,990.88
2018-03-31T06:41:12.730Z,990.88
2018-03-31T06:42:12.804Z,990.88
2018-03-31T06:43:12.685Z,990.85
2018-03-31T06:44:12.667Z,990.87
2018-03-31T06:45:12.694Z,990.85
2018-03-31T06:46:12.633Z,990.9
2018-03-31T06:47:12.610Z,990.94
2018-03-31T06:48:12.590Z,990.94
2018-03-31T06:49:12.573Z,990.95
2018-03-31T06:50:12.551Z,990.95
2018-03-31T06:51:12.532Z,990.97
2018-03-31T06:52:12.548Z,990.98
2018-03-31T06:53:12.496Z,991.03
2018-03-31T06:54:12.506Z,991.06
2018-03-31T06:55:12.457Z,991.06
2018-03-31T06:56:12.447Z,991.1
2018-03-31T06:57:12.422Z,991.13
2018-03-31T06:58:12.401Z,991.12
2018-03-31T06:59:12.382Z,991.15
2018-03-31T07:00:12.384Z,991.19
2018-03-31T07:01:12.344Z,991.18
2018-03-31T07:02:12.326Z,991.19
2018-03-31T07:03:12.306Z,991.15
2018-03-31T07:04:12.288Z,991.17
2018-03-31T07:05:12.310Z,991.19
2018-03-31T07:06:12.252Z,991.2
2018-03-31T07:07:12.234Z,991.24
2018-03-31T07:08:12.224Z,991.2
2018-03-31T07:09:12.197Z,991.25
2018-03-31T07:10:12.179Z,991.25
2018-03-31T07:11:12.160Z,991.22
2018-03-31T07:12:12.141Z,991.22
2018-03-31T07:13:12.123Z,991.25
2018-03-31T07:14:12.109Z,991.21
2018-03-31T07:15:12.086Z,991.17
2018-03-31T07:16:12.069Z,991.26
2018-03-31T07:17:12.051Z,991.21
2018-03-31T07:18:12.033Z,991.23
2018-03-31T07:19:12.016Z,991.25
2018-03-31T07:20:11.996Z,991.24
2018-03-31T07:21:11.978Z,991.23
2018-03-31T07:22:11.961Z,991.25
2018-03-31T07:23:11.945Z,991.24
2018-03-31T07:24:11.964Z,991.26
2018-03-31T07:25:11.914Z,991.23
2018-03-31T07:26:11.895Z,991.22
2018-03-31T07:27:11.872Z,991.23
2018-03-31T07:28:11.853Z,991.21
2018-03-31T07:29:11.834Z,991.25
2018-03-31T07:30:11.825Z,991.2
2018-03-31T07:31:11.801Z,991.22
2018-03-31T07:32:11.811Z,991.21
2018-03-31T07:33:11.763Z,991.24
2018-03-31T07:34:11.765Z,991.22
2018-03-31T07:35:11.727Z,991.19
2018-03-31T07:36:11.713Z,991.2
2018-03-31T07:37:11.694Z,991.22
2018-03-31T07:38:11.675Z,991.18
2018-03-31T07:39:11.656Z,991.19
2018-03-31T07:40:11.647Z,991.19
2018-03-31T07:41:11.655Z,991.19
2018-03-31T07:42:11.626Z,991.18
2018-03-31T07:43:11.680Z,991.22
2018-03-31T07:44:11.569Z,991.17
2018-03-31T07:45:11.556Z,991.17
2018-03-31T07:46:11.546Z,991.22
2018-03-31T07:47:11.554Z,991.19
2018-03-31T07:48:11.518Z,991.13
2018-03-31T07:49:11.516Z,991.17
2018-03-31T07:50:11.522Z,991.12
2018-03-31T07:51:11.449Z,991.14
2018-03-31T07:52:11.432Z,991.15
2018-03-31T07:53:11.416Z,991.17
2018-03-31T07:54:11.397Z,991.14
2018-03-31T07:55:11.383Z,991.23
2018-03-31T07:56:11.370Z,991.23
2018-03-31T07:57:11.374Z,991.21
2018-03-31T07:58:11.329Z,991.23
2018-03-31T07:59:11.314Z,991.22
2018-03-31T08:00:11.297Z,991.25
2018-03-31T08:01:11.279Z,991.22
2018-03-31T08:02:11.269Z,991.24
2018-03-31T08:03:11.248Z,991.25
2018-03-31T08:04:11.231Z,991.32
2018-03-31T08:05:11.218Z,991.29
2018-03-31T08:06:11.199Z,991.27
2018-03-31T08:07:11.182Z,991.31
2018-03-31T08:08:11.163Z,991.3
2018-03-31T08:09:11.352Z,991.32
2018-03-31T08:10:11.146Z,991.35
2018-03-31T08:11:11.114Z,991.33
2018-03-31T08:12:11.097Z,991.35
2018-03-31T08:13:11.083Z,991.31
2018-03-31T08:14:11.066Z,991.32
2018-03-31T08:15:11.050Z,991.35
2018-03-31T08:16:11.036Z,991.48
2018-03-31T08:17:11.019Z,991.56
2018-03-31T08:18:11.001Z,991.52
2018-03-31T08:19:10.985Z,991.48
2018-03-31T08:20:10.970Z,991.55
2018-03-31T08:21:10.997Z,991.5
2018-03-31T08:22:10.944Z,991.5
2018-03-31T08:23:10.926Z,991.48
2018-03-31T08:24:10.913Z,991.53
2018-03-31T08:25:10.901Z,991.52
2018-03-31T08:26:10.926Z,991.58
2018-03-31T08:27:10.873Z,991.59
2018-03-31T08:28:10.861Z,991.63
2018-03-31T08:29:10.853Z,991.61
2018-03-31T08:30:10.836Z,991.61
2018-03-31T08:31:10.825Z,991.6
2018-03-31T08:32:10.817Z,991.58
2018-03-31T08:33:10.807Z,991.56
2018-03-31T08:34:10.793Z,991.55
2018-03-31T08:35:10.782Z,991.55
2018-03-31T08:36:10.777Z,991.57
2018-03-31T08:37:10.761Z,991.52
2018-03-31T08:38:10.752Z,991.56
2018-03-31T08:39:10.743Z,991.61
2018-03-31T08:40:10.737Z,991.57
2018-03-31T08:41:10.723Z,991.6
2018-03-31T08:42:10.715Z,991.55
2018-03-31T08:43:10.704Z,991.57
2018-03-31T08:44:10.743Z,991.52
2018-03-31T08:45:10.688Z,991.57
2018-03-31T08:46:10.680Z,991.6
2018-03-31T08:47:10.779Z,991.61
2018-03-31T08:48:10.697Z,991.55
2018-03-31T08:49:10.655Z,991.51
2018-03-31T08:50:10.646Z,991.59
2018-03-31T08:51:10.638Z,991.58
2018-03-31T08:52:10.633Z,991.54
2018-03-31T08:53:10.625Z,991.56
2018-03-31T08:54:10.618Z,991.58
2018-03-31T08:55:10.610Z,991.51
2018-03-31T08:56:10.600Z,991.56
2018-03-31T08:57:10.596Z,991.54
2018-03-31T08:58:10.589Z,991.54
2018-03-31T08:59:10.579Z,991.51
2018-03-31T09:00:10.570Z,991.52
2018-03-31T09:01:10.563Z,991.53
2018-03-31T09:02:10.555Z,991.55
2018-03-31T09:03:10.554Z,991.56
2018-03-31T09:04:10.582Z,991.55
2018-03-31T09:05:10.533Z,991.55
2018-03-31T09:06:10.533Z,991.56
2018-03-31T09:07:10.517Z,991.56
2018-03-31T09:08:10.511Z,991.59
2018-03-31T09:09:10.578Z,991.58
2018-03-31T09:10:10.518Z,991.57
2018-03-31T09:11:10.490Z,991.59
2018-03-31T09:12:10.491Z,991.63
2018-03-31T09:13:10.513Z,991.58
2018-03-31T09:14:10.469Z,991.59
2018-03-31T09:15:10.482Z,991.62
2018-03-31T09:16:10.450Z,991.6
2018-03-31T09:17:10.443Z,991.63
2018-03-31T09:18:10.436Z,991.65
2018-03-31T09:19:10.431Z,991.62
2018-03-31T09:20:10.423Z,991.63
2018-03-31T09:21:10.417Z,991.63
2018-03-31T09:22:10.408Z,991.66
2018-03-31T09:23:10.402Z,991.63
2018-03-31T09:24:10.395Z,991.62
2018-03-31T09:25:10.389Z,991.65
2018-03-31T09:26:10.383Z,991.59
2018-03-31T09:27:10.375Z,991.64
2018-03-31T09:28:10.371Z,991.63
2018-03-31T09:29:10.399Z,991.64
2018-03-31T09:30:10.372Z,991.63
2018-03-31T09:31:10.349Z,991.69
2018-03-31T09:32:10.347Z,991.69
2018-03-31T09:33:10.337Z,991.73
2018-03-31T09:34:10.330Z,991.68
2018-03-31T09:35:10.323Z,991.64
2018-03-31T09:36:10.320Z,991.65
2018-03-31T09:37:10.311Z,991.71
2018-03-31T09:38:10.333Z,991.67
2018-03-31T09:39:10.349Z,991.76
2018-03-31T09:40:10.297Z,991.75
2018-03-31T09:41:10.322Z,991.73
2018-03-31T09:42:10.313Z,991.68
2018-03-31T09:43:10.281Z,991.67
2018-03-31T09:44:10.315Z,991.66
2018-03-31T09:45:10.265Z,991.63
2018-03-31T09:46:10.254Z,991.7
2018-03-31T09:47:10.251Z,991.66
2018-03-31T09:48:10.247Z,991.75
2018-03-31T09:49:10.234Z,991.71
2018-03-31T09:50:10.233Z,991.71
2018-03-31T09:51:10.223Z,991.71
2018-03-31T09:52:10.216Z,991.71
2018-03-31T09:53:10.221Z,991.67
2018-03-31T09:54:10.202Z,991.71
2018-03-31T09:55:10.197Z,991.71
2018-03-31T09:56:10.191Z,991.73
2018-03-31T09:57:10.187Z,991.71
2018-03-31T09:58:10.182Z,991.68
2018-03-31T09:59:10.173Z,991.72
2018-03-31T10:00:10.170Z,991.66
2018-03-31T10:01:10.161Z,991.71
2018-03-31T10:02:10.158Z,991.7
2018-03-31T10:03:10.151Z,991.71
2018-03-31T10:04:10.143Z,991.7
2018-03-31T10:05:10.138Z,991.68
2018-03-31T10:06:10.132Z,991.7
2018-03-31T10:07:10.128Z,991.69
2018-03-31T10:08:10.121Z,991.71
2018-03-31T10:09:10.321Z,991.77
2018-03-31T10:10:10.107Z,991.71
2018-03-31T10:11:10.100Z,991.72
2018-03-31T10:12:10.093Z,991.69
2018-03-31T10:13:10.088Z,991.73
2018-03-31T10:14:10.082Z,991.72
2018-03-31T10:15:10.077Z,991.74
2018-03-31T10:16:10.069Z,991.74
2018-03-31T10:17:10.058Z,991.73
2018-03-31T10:18:10.050Z,991.72
2018-03-31T10:19:10.041Z,991.69
2018-03-31T10:20:10.042Z,991.74
2018-03-31T10:21:10.027Z,991.77
2018-03-31T10:22:10.019Z,991.75
2018-03-31T10:23:10.009Z,991.75
2018-03-31T10:24:10.033Z,991.79
2018-03-31T10:25:10.000Z,991.78
2018-03-31T10:26:09.985Z,991.81
2018-03-31T10:27:09.977Z,991.84
2018-03-31T10:28:09.968Z,991.89
2018-03-31T10:29:09.959Z,991.85
2018-03-31T10:30:09.948Z,991.89
2018-03-31T10:31:09.943Z,991.87
2018-03-31T10:32:09.937Z,991.88
2018-03-31T10:33:09.922Z,991.86
2018-03-31T10:34:09.929Z,991.85
2018-03-31T10:35:09.914Z,991.85
2018-03-31T10:36:09.902Z,991.85
2018-03-31T10:37:09.894Z,991.9
2018-03-31T10:38:09.889Z,991.87
2018-03-31T10:39:09.883Z,991.89
2018-03-31T10:40:09.875Z,991.88
2018-03-31T10:41:09.871Z,991.91
2018-03-31T10:42:09.865Z,991.91
2018-03-31T10:43:09.859Z,991.85
2018-03-31T10:44:09.852Z,991.87
2018-03-31T10:45:09.925Z,991.81
2018-03-31T10:46:09.842Z,991.85
2018-03-31T10:47:09.837Z,991.85
2018-03-31T10:48:09.831Z,991.82
2018-03-31T10:49:09.857Z,991.83
2018-03-31T10:50:09.832Z,991.88
2018-03-31T10:51:09.853Z,991.88
2018-03-31T10:52:09.814Z,991.94
2018-03-31T10:53:09.807Z,991.94
2018-03-31T10:54:09.804Z,991.92
2018-03-31T10:55:09.796Z,991.95
2018-03-31T10:56:09.790Z,991.93
2018-03-31T10:57:09.789Z,991.9
2018-03-31T10:58:09.780Z,991.83
2018-03-31T10:59:09.775Z,991.79
2018-03-31T11:00:09.773Z,991.72
2018-03-31T11:01:09.769Z,991.71
2018-03-31T11:02:09.764Z,991.61
2018-03-31T11:03:09.775Z,991.58
2018-03-31T11:04:09.758Z,991.55
2018-03-31T11:05:09.758Z,991.63
2018-03-31T11:06:09.750Z,991.67
2018-03-31T11:07:09.748Z,991.7
2018-03-31T11:08:09.752Z,991.69
2018-03-31T11:09:09.749Z,991.77
2018-03-31T11:10:09.744Z,991.93
2018-03-31T11:11:09.754Z,991.94
2018-03-31T11:12:09.737Z,991.98
2018-03-31T11:13:09.734Z,992.02
2018-03-31T11:14:09.732Z,992.04
2018-03-31T11:15:09.734Z,992.07
2018-03-31T11:16:09.736Z,992.11
2018-03-31T11:17:09.731Z,992.1
2018-03-31T11:18:09.941Z,992.08
2018-03-31T11:19:09.732Z,992.13
2018-03-31T11:20:09.728Z,992.1
2018-03-31T11:21:09.731Z,992.1
2018-03-31T11:22:09.844Z,992.12
2018-03-31T11:23:09.733Z,992.12
2018-03-31T11:24:09.739Z,992.09
2018-03-31T11:25:09.737Z,992.12
2018-03-31T11:26:09.735Z,992.1
2018-03-31T11:27:09.738Z,992.1
2018-03-31T11:28:09.738Z,992.07
2018-03-31T11:29:09.739Z,992.06
2018-03-31T11:30:09.744Z,992.07
2018-03-31T11:31:09.741Z,992.08
2018-03-31T11:32:09.745Z,992.1
2018-03-31T11:33:09.747Z,992.12
2018-03-31T11:34:09.750Z,992.09
2018-03-31T11:35:09.751Z,992.1
2018-03-31T11:36:09.755Z,992.09
2018-03-31T11:37:09.757Z,992.11
2018-03-31T11:38:09.766Z,992.11
2018-03-31T11:39:09.765Z,992.1
2018-03-31T11:40:09.769Z,992.08
2018-03-31T11:41:09.773Z,992.06
2018-03-31T11:42:09.778Z,992.04
2018-03-31T11:43:09.863Z,991.94
2018-03-31T11:44:09.805Z,991.93
2018-03-31T11:45:09.790Z,991.94
2018-03-31T11:46:09.795Z,991.95
2018-03-31T11:47:09.796Z,992.01
2018-03-31T11:48:09.801Z,992.06
2018-03-31T11:49:09.803Z,992.08
2018-03-31T11:50:09.805Z,992.08
2018-03-31T11:51:09.811Z,992.08
2018-03-31T11:52:09.810Z,992.06
2018-03-31T11:53:09.810Z,992.02
2018-03-31T11:54:09.814Z,992.06
2018-03-31T11:55:09.820Z,992.06
2018-03-31T11:56:09.818Z,992.03
2018-03-31T11:57:09.822Z,992.1
2018-03-31T11:58:09.822Z,992.02
2018-03-31T11:59:09.828Z,992.04
2018-03-31T12:00:09.878Z,992.09
2018-03-31T12:01:09.834Z,991.95
2018-03-31T12:02:09.838Z,991.95
2018-03-31T12:03:09.842Z,992.03
2018-03-31T12:04:09.841Z,992.01
2018-03-31T12:05:09.843Z,992.02
2018-03-31T12:06:09.846Z,992.05
2018-03-31T12:07:09.857Z,992.02
2018-03-31T12:08:09.855Z,992.02
2018-03-31T12:09:10.056Z,992.02
2018-03-31T12:10:09.856Z,992.01
2018-03-31T12:11:09.862Z,991.98
2018-03-31T12:12:09.863Z,991.86
2018-03-31T12:13:09.865Z,991.94
2018-03-31T12:14:09.965Z,991.98
2018-03-31T12:15:09.871Z,991.96
2018-03-31T12:16:09.875Z,991.95
2018-03-31T12:17:09.879Z,991.81
2018-03-31T12:18:09.888Z,991.86
2018-03-31T12:19:09.885Z,991.85
2018-03-31T12:20:09.889Z,991.86
2018-03-31T12:21:09.891Z,991.95
2018-03-31T12:22:09.942Z,991.83
2018-03-31T12:23:09.896Z,991.81
2018-03-31T12:24:09.900Z,991.86
2018-03-31T12:25:09.961Z,991.86
2018-03-31T12:26:09.906Z,991.8
2018-03-31T12:27:09.988Z,991.82
2018-03-31T12:28:09.909Z,991.76
2018-03-31T12:29:09.978Z,991.88
2018-03-31T12:30:09.913Z,991.85